Airfield :
LOGIN :

Register | Disclaimer

   EN    FR    IT 

 










Legend :    VFR   Marginal VFR   IFR   Intensive IFR   Very Intensive IFR
Visi :
Ceiling :
>= 8 km
>= 3000ft
5 to 8 km
1000 to 3000 ft
1500m to 5 km
500 to 1000 ft
800 to 1500m
200 to 500 ft
< 800m
< 200 ft
Symbols :   Thunderstorms  Fog  Heavy snow  Heavy precipitations  Wind > 20 kt
SIGMETs :     Misc.  Thunderstorms  Icing  Turbulence  Mountain Waves  Volcanic Ashes






- Airport Elevation : 242 ft
- IATA code : DUB


EIDW - Dublin

CURRENT METAR :
  • 220130Z 30005KT 9999 FEW014 BKN043 06/04 Q1023 NOSIG

EXPIRED METARs :
  • 220100Z 32007KT 9999 FEW014 BKN042 07/05 Q1023 NOSIG
  • 220030Z 33008KT 9999 FEW014 BKN042 06/04 Q1023 NOSIG
  • 220000Z 33008KT 9999 FEW016 SCT040 07/04 Q1023 NOSIG
  • 212330Z 33007KT 9999 FEW016 SCT050 07/04 Q1023 NOSIG

TAF TAF EIDW
Valid from the 22 at 00:00 until the 23 at 00:00 UTC


212300Z 2200/2224 32008KT 9999 FEW017 SCT040
BECMG 2201/2203 29007KT
BECMG 2207/2209 33007KT
BECMG 2211/2213 VRB03KT
BECMG 2213/2215 13007KT
BECMG 2218/2220 31008KT



MET'MAP, your aeronautical weather chart ! - Copyright ORBIFLY December 2007 - Disclaimer

ORBIFLY MET'MAP TEAM :

Programming & Development : Alexandra Zaïnal
Concept & original design : Baudouin d'Aumeries
Assistance for programming : Marc-Olivier Méhu
Technical & hardware support : Manuel Goepfert

Contact : metmap@orbifly.com




SOURCES & CREDITS :

   NOAA